createdAt,value
2022-12-18T00:01:36.068Z,101161.50
2022-12-18T00:04:06.754Z,101165.63
2022-12-18T00:06:36.293Z,101177.69
2022-12-18T00:09:04.978Z,101172.94
2022-12-18T00:11:33.039Z,101175.97
2022-12-18T00:14:01.219Z,101180.41
2022-12-18T00:16:31.231Z,101183.59
2022-12-18T00:18:59.527Z,101185.72
2022-12-18T00:21:29.454Z,101191.81
2022-12-18T00:23:56.773Z,101199.41
2022-12-18T00:26:31.732Z,101187.25
2022-12-18T00:29:07.944Z,101189.53
2022-12-18T00:31:35.889Z,101187.59
2022-12-18T00:34:04.615Z,101190.03
2022-12-18T00:36:35.052Z,101194.91
2022-12-18T00:39:05.947Z,101198.22
2022-12-18T00:41:52.421Z,101202.38
2022-12-18T00:44:20.652Z,101203.41
2022-12-18T00:46:49.203Z,101209.22
2022-12-18T00:49:20.525Z,101211.34
2022-12-18T00:51:48.818Z,101222.47
2022-12-18T00:54:18.426Z,101218.03
2022-12-18T00:56:49.358Z,101229.28
2022-12-18T00:59:19.046Z,101234.16
2022-12-18T01:01:47.810Z,101243.00
2022-12-18T01:04:15.492Z,101245.59
2022-12-18T01:06:46.315Z,101247.56
2022-12-18T01:09:14.153Z,101252.72
2022-12-18T01:11:41.507Z,101257.31
2022-12-18T01:14:08.910Z,101262.03
2022-12-18T01:16:38.533Z,101265.22
2022-12-18T01:19:05.992Z,101264.59
2022-12-18T01:21:34.091Z,101266.28
2022-12-18T01:24:05.879Z,101279.34
2022-12-18T01:26:33.292Z,101280.25
2022-12-18T01:29:00.421Z,101285.09
2022-12-18T01:31:32.912Z,101284.03
2022-12-18T01:34:06.030Z,101291.97
2022-12-18T01:36:39.946Z,101296.69
2022-12-18T01:39:15.037Z,101298.50
2022-12-18T01:42:02.209Z,101307.34
2022-12-18T01:45:02.041Z,101322.13
2022-12-18T01:47:48.902Z,101319.53
2022-12-18T01:50:38.656Z,101321.81
2022-12-18T01:53:16.997Z,101323.66
2022-12-18T01:55:54.849Z,101325.81
2022-12-18T01:58:59.763Z,101327.03
2022-12-18T02:01:27.899Z,101325.78
2022-12-18T02:03:55.301Z,101327.66
2022-12-18T02:06:41.251Z,101323.97
2022-12-18T02:09:22.081Z,101334.03
2022-12-18T02:12:19.042Z,101335.41
2022-12-18T02:15:27.910Z,101338.91
2022-12-18T02:18:23.660Z,101342.44
2022-12-18T02:21:00.808Z,101348.19
2022-12-18T02:24:16.284Z,101341.19
2022-12-18T02:27:08.859Z,101350.78
2022-12-18T02:29:54.323Z,101344.72
2022-12-18T02:32:50.829Z,101352.47
2022-12-18T02:35:26.025Z,101338.94
2022-12-18T02:37:56.493Z,101346.06
2022-12-18T02:40:28.560Z,101346.38
2022-12-18T02:42:56.681Z,101347.31
2022-12-18T02:45:24.378Z,101339.22
2022-12-18T02:47:53.016Z,101340.28
2022-12-18T02:50:39.404Z,101335.56
2022-12-18T02:53:29.456Z,101345.75
2022-12-18T02:56:17.926Z,101350.78
2022-12-18T02:59:14.465Z,101360.69
2022-12-18T03:02:16.250Z,101357.78
2022-12-18T03:05:17.620Z,101362.06
2022-12-18T03:08:20.354Z,101371.81
2022-12-18T03:11:03.743Z,101376.69
2022-12-18T03:13:58.381Z,101375.19
2022-12-18T03:16:29.751Z,101373.78
2022-12-18T03:19:08.135Z,101371.81
2022-12-18T03:21:46.742Z,101364.66
2022-12-18T03:24:18.316Z,101373.78
2022-12-18T03:26:53.725Z,101372.13
2022-12-18T03:29:35.485Z,101373.03
2022-12-18T03:32:24.336Z,101371.47
2022-12-18T03:34:56.460Z,101377.44
2022-12-18T03:37:24.341Z,101378.81
2022-12-18T03:39:53.483Z,101382.00
2022-12-18T03:42:52.888Z,101379.72
2022-12-18T03:45:47.855Z,101390.84
2022-12-18T03:48:45.496Z,101387.00
2022-12-18T03:51:45.815Z,101390.69
2022-12-18T03:54:13.793Z,101389.13
2022-12-18T03:57:04.783Z,101386.69
2022-12-18T03:59:33.793Z,101394.63
2022-12-18T04:02:02.749Z,101393.72
2022-12-18T04:04:32.580Z,101404.53
2022-12-18T04:07:04.671Z,101401.66
2022-12-18T04:09:35.389Z,101413.81
2022-12-18T04:12:02.791Z,101414.56
2022-12-18T04:14:30.653Z,101420.19
2022-12-18T04:16:58.195Z,101419.00
2022-12-18T04:19:30.886Z,101429.19
2022-12-18T04:21:59.204Z,101423.09
2022-12-18T04:24:27.303Z,101415.63
2022-12-18T04:27:07.117Z,101420.06
2022-12-18T04:29:40.793Z,101425.06
2022-12-18T04:32:09.448Z,101425.38
2022-12-18T04:34:37.847Z,101430.38
2022-12-18T04:37:06.205Z,101432.03
2022-12-18T04:39:33.822Z,101430.25
2022-12-18T04:42:06.610Z,101435.59
2022-12-18T04:44:35.300Z,101442.44
2022-12-18T04:47:02.472Z,101449.41
2022-12-18T04:49:29.741Z,101465.41
2022-12-18T04:51:56.956Z,101469.06
2022-12-18T04:54:24.332Z,101462.22
2022-12-18T04:56:51.604Z,101466.16
2022-12-18T04:59:18.780Z,101466.31
2022-12-18T05:01:46.829Z,101463.41
2022-12-18T05:04:14.213Z,101474.81
2022-12-18T05:06:41.493Z,101468.13
2022-12-18T05:09:08.868Z,101472.56
2022-12-18T05:11:36.904Z,101474.50
2022-12-18T05:14:04.281Z,101489.88
2022-12-18T05:16:31.549Z,101500.53
2022-12-18T05:18:58.757Z,101501.50
2022-12-18T05:21:25.946Z,101504.22
2022-12-18T05:23:53.135Z,101502.06
2022-12-18T05:26:20.849Z,101514.13
2022-12-18T05:28:48.212Z,101515.78
2022-12-18T05:31:15.960Z,101523.22
2022-12-18T05:33:43.825Z,101519.13
2022-12-18T05:36:12.347Z,101510.59
2022-12-18T05:38:40.702Z,101516.53
2022-12-18T05:41:08.843Z,101513.63
2022-12-18T05:43:39.443Z,101511.47
2022-12-18T05:46:16.889Z,101513.00
2022-12-18T05:48:46.016Z,101521.19
2022-12-18T05:51:18.570Z,101527.28
2022-12-18T05:53:46.937Z,101538.56
2022-12-18T05:56:22.357Z,101537.81
2022-12-18T05:58:54.718Z,101536.75
2022-12-18T06:01:27.427Z,101534.34
2022-12-18T06:03:56.004Z,101545.25
2022-12-18T06:06:28.213Z,101555.25
2022-12-18T06:08:57.557Z,101559.41
2022-12-18T06:11:27.430Z,101562.84
2022-12-18T06:13:59.088Z,101558.16
2022-12-18T06:16:28.711Z,101568.34
2022-12-18T06:19:05.829Z,101552.66
2022-12-18T06:21:34.648Z,101559.81
2022-12-18T06:24:02.328Z,101566.69
2022-12-18T06:26:29.572Z,101563.19
2022-12-18T06:28:56.959Z,101565.16
2022-12-18T06:31:25.004Z,101570.81
2022-12-18T06:33:52.752Z,101579.06
2022-12-18T06:36:21.063Z,101570.25
2022-12-18T06:38:48.326Z,101580.44
2022-12-18T06:41:19.780Z,101572.91
2022-12-18T06:43:47.070Z,101580.97
2022-12-18T06:46:14.736Z,101577.53
2022-12-18T06:48:42.146Z,101579.63
2022-12-18T06:51:09.538Z,101579.94
2022-12-18T06:53:36.972Z,101583.91
2022-12-18T06:56:10.193Z,101589.06
2022-12-18T06:58:39.409Z,101605.50
2022-12-18T07:01:11.373Z,101603.97
2022-12-18T07:03:43.174Z,101607.94
2022-12-18T07:06:20.405Z,101614.63
2022-12-18T07:08:49.525Z,101613.47
2022-12-18T07:11:18.419Z,101614.88
2022-12-18T07:13:46.453Z,101618.19
2022-12-18T07:16:24.907Z,101623.97
2022-12-18T07:18:55.441Z,101628.66
2022-12-18T07:21:24.561Z,101641.75
2022-12-18T07:23:51.944Z,101639.66
2022-12-18T07:26:22.417Z,101651.50
2022-12-18T07:28:50.500Z,101658.38
2022-12-18T07:31:22.399Z,101659.56
2022-12-18T07:33:51.660Z,101663.31
2022-12-18T07:36:20.128Z,101672.44
2022-12-18T07:38:51.173Z,101673.66
2022-12-18T07:41:19.543Z,101676.72
2022-12-18T07:43:47.368Z,101684.94
2022-12-18T07:46:17.002Z,101684.34
2022-12-18T07:48:49.234Z,101692.25
2022-12-18T07:51:18.507Z,101702.78
2022-12-18T07:53:45.956Z,101708.81
2022-12-18T07:56:31.141Z,101713.81
2022-12-18T07:58:59.957Z,101714.56
2022-12-18T08:01:27.817Z,101720.50
2022-12-18T08:03:55.120Z,101717.47
2022-12-18T08:06:23.842Z,101731.22
2022-12-18T08:08:54.642Z,101723.91
2022-12-18T08:11:23.710Z,101733.09
2022-12-18T08:13:51.261Z,101736.16
2022-12-18T08:16:20.002Z,101735.28
2022-12-18T08:18:48.791Z,101738.97
2022-12-18T08:21:29.671Z,101745.31
2022-12-18T08:24:00.594Z,101740.78
2022-12-18T08:26:31.187Z,101745.91
2022-12-18T08:29:00.863Z,101749.72
2022-12-18T08:31:30.812Z,101747.59
2022-12-18T08:33:58.539Z,101754.38
2022-12-18T08:36:26.491Z,101752.47
2022-12-18T08:38:55.015Z,101756.78
2022-12-18T08:41:22.932Z,101757.47
2022-12-18T08:44:08.960Z,101752.13
2022-12-18T08:46:41.042Z,101755.78
2022-12-18T08:49:10.460Z,101754.00
2022-12-18T08:51:38.683Z,101754.47
2022-12-18T08:54:07.591Z,101758.53
2022-12-18T08:56:35.676Z,101751.59
2022-12-18T08:59:03.506Z,101751.41
2022-12-18T09:01:31.173Z,101764.34
2022-12-18T09:03:59.227Z,101763.09
2022-12-18T09:06:27.482Z,101766.72
2022-12-18T09:08:58.605Z,101773.50
2022-12-18T09:11:28.679Z,101773.41
2022-12-18T09:13:56.878Z,101781.50
2022-12-18T09:16:31.726Z,101788.50
2022-12-18T09:19:00.710Z,101787.31
2022-12-18T09:21:36.872Z,101794.31
2022-12-18T09:24:08.778Z,101799.50
2022-12-18T09:26:36.928Z,101803.75
2022-12-18T09:29:04.880Z,101802.75
2022-12-18T09:31:32.162Z,101808.59
2022-12-18T09:33:59.322Z,101808.09
2022-12-18T09:36:26.655Z,101804.09
2022-12-18T09:38:54.242Z,101811.47
2022-12-18T09:41:48.133Z,101808.06
2022-12-18T09:44:47.360Z,101804.91
2022-12-18T09:47:25.534Z,101804.59
2022-12-18T09:50:00.179Z,101799.03
2022-12-18T09:52:45.263Z,101799.50
2022-12-18T09:55:41.433Z,101794.94
2022-12-18T09:58:28.934Z,101791.59
2022-12-18T10:00:56.587Z,101790.91
2022-12-18T10:03:24.369Z,101792.50
2022-12-18T10:06:14.864Z,101780.69
2022-12-18T10:09:30.425Z,101780.75
2022-12-18T10:12:26.432Z,101774.19
2022-12-18T10:15:15.843Z,101787.19
2022-12-18T10:18:20.266Z,101779.56
2022-12-18T10:20:57.100Z,101790.00
2022-12-18T10:24:09.377Z,101791.19
2022-12-18T10:26:36.689Z,101780.66
2022-12-18T10:29:13.561Z,101789.38
2022-12-18T10:31:41.081Z,101779.84
2022-12-18T10:34:13.345Z,101784.00
2022-12-18T10:36:43.214Z,101785.69
2022-12-18T10:39:27.273Z,101777.91
2022-12-18T10:42:18.417Z,101774.72
2022-12-18T10:44:46.293Z,101768.16
2022-12-18T10:47:19.187Z,101772.91
2022-12-18T10:49:53.892Z,101774.72
2022-12-18T10:52:26.786Z,101775.59
2022-12-18T10:55:05.572Z,101776.50
2022-12-18T10:57:42.400Z,101772.25
2022-12-18T11:00:31.410Z,101773.69
2022-12-18T11:02:59.279Z,101781.25
2022-12-18T11:05:33.810Z,101775.78
2022-12-18T11:08:02.600Z,101777.47
2022-12-18T11:10:34.956Z,101765.03
2022-12-18T11:13:27.080Z,101776.16
2022-12-18T11:15:54.992Z,101775.22
2022-12-18T11:18:34.452Z,101777.88
2022-12-18T11:21:14.428Z,101778.06
2022-12-18T11:23:54.924Z,101777.69
2022-12-18T11:26:35.150Z,101773.00
2022-12-18T11:29:24.030Z,101777.44
2022-12-18T11:31:51.524Z,101771.59
2022-12-18T11:34:30.904Z,101775.06
2022-12-18T11:37:02.040Z,101768.91
2022-12-18T11:39:55.452Z,101764.47
2022-12-18T11:43:02.545Z,101767.94
2022-12-18T11:45:35.272Z,101763.59
2022-12-18T11:48:27.974Z,101747.22
2022-12-18T11:51:03.449Z,101744.75
2022-12-18T11:53:31.465Z,101722.31
2022-12-18T11:56:31.980Z,101727.41
2022-12-18T11:59:35.922Z,101730.28
2022-12-18T12:02:45.681Z,101725.94
2022-12-18T12:05:48.205Z,101708.31
2022-12-18T12:08:51.603Z,101698.91
2022-12-18T12:12:14.723Z,101686.34
2022-12-18T12:15:20.373Z,101683.06
2022-12-18T12:18:22.670Z,101681.22
2022-12-18T12:21:41.649Z,101687.34
2022-12-18T12:25:00.429Z,101685.41
2022-12-18T12:28:16.801Z,101683.28
2022-12-18T12:31:18.571Z,101687.00
2022-12-18T12:34:07.844Z,101680.97
2022-12-18T12:37:23.572Z,101680.22
2022-12-18T12:39:54.641Z,101672.88
2022-12-18T12:43:05.831Z,101679.38
2022-12-18T12:46:23.972Z,101675.41
2022-12-18T12:49:04.984Z,101668.50
2022-12-18T12:51:38.480Z,101671.63
2022-12-18T12:54:25.840Z,101681.38
2022-12-18T12:57:27.007Z,101667.53
2022-12-18T13:00:17.030Z,101671.63
2022-12-18T13:03:13.287Z,101665.84
2022-12-18T13:06:37.502Z,101668.72
2022-12-18T13:09:07.556Z,101659.53
2022-12-18T13:12:05.502Z,101663.88
2022-12-18T13:14:41.509Z,101656.22
2022-12-18T13:17:30.585Z,101657.00
2022-12-18T13:20:17.036Z,101654.81
2022-12-18T13:22:51.210Z,101654.16
2022-12-18T13:25:39.180Z,101651.22
2022-12-18T13:28:17.497Z,101658.47
2022-12-18T13:30:50.908Z,101655.00
2022-12-18T13:33:36.014Z,101664.72
2022-12-18T13:36:30.423Z,101652.69
2022-12-18T13:39:23.904Z,101659.63
2022-12-18T13:42:35.965Z,101651.47
2022-12-18T13:45:46.626Z,101656.53
2022-12-18T13:48:27.045Z,101653.44
2022-12-18T13:51:10.312Z,101649.63
2022-12-18T13:54:00.727Z,101647.34
2022-12-18T13:56:32.729Z,101646.94
2022-12-18T13:59:27.236Z,101642.09
2022-12-18T14:02:02.785Z,101630.50
2022-12-18T14:04:36.772Z,101634.94
2022-12-18T14:07:14.730Z,101634.16
2022-12-18T14:09:49.824Z,101637.84
2022-12-18T14:12:48.177Z,101629.31
2022-12-18T14:15:27.535Z,101648.44
2022-12-18T14:18:02.416Z,101651.56
2022-12-18T14:20:33.822Z,101652.53
2022-12-18T14:23:01.687Z,101653.19
2022-12-18T14:25:31.575Z,101666.09
2022-12-18T14:28:08.692Z,101665.53
2022-12-18T14:30:46.481Z,101660.41
2022-12-18T14:33:19.637Z,101653.09
2022-12-18T14:36:03.707Z,101663.09
2022-12-18T14:38:40.564Z,101665.09
2022-12-18T14:41:20.205Z,101667.09
2022-12-18T14:43:51.656Z,101677.19
2022-12-18T14:46:40.040Z,101680.91
2022-12-18T14:49:32.827Z,101682.78
2022-12-18T14:52:23.948Z,101690.44
2022-12-18T14:54:52.760Z,101693.47
2022-12-18T14:57:27.763Z,101694.72
2022-12-18T15:00:06.506Z,101694.72
2022-12-18T15:02:37.417Z,101691.66
2022-12-18T15:05:22.640Z,101693.66
2022-12-18T15:07:57.321Z,101704.81
2022-12-18T15:10:33.406Z,101699.00
2022-12-18T15:13:01.480Z,101705.09
2022-12-18T15:15:38.085Z,101702.97
2022-12-18T15:18:21.000Z,101702.97
2022-12-18T15:21:01.529Z,101702.19
2022-12-18T15:23:55.217Z,101708.72
2022-12-18T15:26:23.523Z,101712.97
2022-12-18T15:29:00.813Z,101723.47
2022-12-18T15:31:36.312Z,101726.75
2022-12-18T15:34:21.749Z,101724.44
2022-12-18T15:36:49.072Z,101732.63
2022-12-18T15:39:16.367Z,101740.66
2022-12-18T15:42:03.679Z,101740.28
2022-12-18T15:44:33.750Z,101742.84
2022-12-18T15:47:00.880Z,101750.44
2022-12-18T15:49:28.177Z,101751.13
2022-12-18T15:52:00.756Z,101756.25
2022-12-18T15:55:00.488Z,101755.44
2022-12-18T15:57:27.789Z,101752.25
2022-12-18T15:59:58.961Z,101742.34
2022-12-18T16:02:28.749Z,101745.38
2022-12-18T16:04:56.260Z,101745.19
2022-12-18T16:07:25.182Z,101754.03
2022-12-18T16:09:55.646Z,101752.78
2022-12-18T16:12:26.387Z,101749.63
2022-12-18T16:14:53.603Z,101755.72
2022-12-18T16:17:21.095Z,101746.59
2022-12-18T16:19:48.415Z,101752.53
2022-12-18T16:22:30.927Z,101758.63
2022-12-18T16:24:58.901Z,101761.72
2022-12-18T16:27:26.610Z,101759.53
2022-12-18T16:29:53.970Z,101756.88
2022-12-18T16:32:23.600Z,101766.97
2022-12-18T16:34:52.151Z,101764.91
2022-12-18T16:37:19.948Z,101765.56
2022-12-18T16:39:47.144Z,101767.38
2022-12-18T16:42:20.997Z,101764.38
2022-12-18T16:44:50.254Z,101770.63
2022-12-18T16:47:19.217Z,101778.56
2022-12-18T16:49:46.886Z,101775.41
2022-12-18T16:52:14.820Z,101770.81
2022-12-18T16:54:42.247Z,101767.88
2022-12-18T16:57:14.722Z,101780.09
2022-12-18T16:59:42.299Z,101783.16
2022-12-18T17:02:24.306Z,101781.72
2022-12-18T17:04:56.558Z,101782.59
2022-12-18T17:07:25.796Z,101784.81
2022-12-18T17:09:54.131Z,101784.25
2022-12-18T17:12:22.629Z,101778.00
2022-12-18T17:14:49.980Z,101783.84
2022-12-18T17:17:21.935Z,101780.09
2022-12-18T17:19:51.518Z,101773.91
2022-12-18T17:22:19.130Z,101788.91
2022-12-18T17:24:47.859Z,101779.22
2022-12-18T17:27:15.836Z,101781.09
2022-12-18T17:29:47.297Z,101778.50
2022-12-18T17:32:17.292Z,101774.91
2022-12-18T17:34:44.460Z,101775.97
2022-12-18T17:37:11.792Z,101775.31
2022-12-18T17:39:39.605Z,101788.44
2022-12-18T17:42:06.903Z,101780.06
2022-12-18T17:44:36.881Z,101797.91
2022-12-18T17:47:05.955Z,101795.66
2022-12-18T17:49:33.251Z,101797.09
2022-12-18T17:52:00.453Z,101799.69
2022-12-18T17:54:27.616Z,101793.03
2022-12-18T17:56:54.779Z,101800.84
2022-12-18T17:59:22.627Z,101794.69
2022-12-18T18:01:50.072Z,101793.41
2022-12-18T18:04:17.535Z,101794.09
2022-12-18T18:06:44.713Z,101808.78
2022-12-18T18:09:16.943Z,101806.19
2022-12-18T18:12:06.346Z,101798.09
2022-12-18T18:14:33.714Z,101802.34
2022-12-18T18:17:04.890Z,101793.53
2022-12-18T18:19:34.022Z,101803.28
2022-12-18T18:22:02.982Z,101803.28
2022-12-18T18:24:31.018Z,101803.09
2022-12-18T18:27:01.140Z,101803.88
2022-12-18T18:29:32.794Z,101809.22
2022-12-18T18:32:00.240Z,101813.47
2022-12-18T18:34:31.604Z,101820.28
2022-12-18T18:37:02.029Z,101815.72
2022-12-18T18:39:29.608Z,101814.78
2022-12-18T18:41:57.122Z,101813.28
2022-12-18T18:44:26.014Z,101818.97
2022-12-18T18:46:58.484Z,101835.81
2022-12-18T18:49:28.071Z,101837.91
2022-12-18T18:51:57.540Z,101841.75
2022-12-18T18:54:27.053Z,101844.75
2022-12-18T18:59:42.638Z,101835.72
2022-12-18T19:02:14.565Z,101837.00
2022-12-18T19:04:45.801Z,101844.66
2022-12-18T19:07:22.556Z,101850.19
2022-12-18T19:10:04.180Z,101844.34
2022-12-18T19:13:09.382Z,101845.81
2022-12-18T19:15:36.800Z,101839.75
2022-12-18T19:18:04.817Z,101845.09
2022-12-18T19:20:32.018Z,101841.56
2022-12-18T19:22:59.204Z,101842.50
2022-12-18T19:25:40.531Z,101840.81
2022-12-18T19:28:21.243Z,101850.19
2022-12-18T19:30:57.893Z,101851.28
2022-12-18T19:33:43.160Z,101849.03
2022-12-18T19:36:31.197Z,101849.50
2022-12-18T19:39:01.497Z,101844.16
2022-12-18T19:41:31.242Z,101842.84
2022-12-18T19:44:34.631Z,101844.06
2022-12-18T19:47:01.807Z,101855.59
2022-12-18T19:49:30.234Z,101851.59
2022-12-18T19:51:57.465Z,101853.06
2022-12-18T19:54:24.868Z,101862.34
2022-12-18T19:56:53.606Z,101864.69
2022-12-18T19:59:20.775Z,101865.78
2022-12-18T20:01:48.203Z,101876.13
2022-12-18T20:04:15.719Z,101877.63
2022-12-18T20:06:53.887Z,101879.63
2022-12-18T20:09:21.715Z,101880.38
2022-12-18T20:11:50.046Z,101882.38
2022-12-18T20:14:22.501Z,101887.16
2022-12-18T20:16:52.980Z,101883.91
2022-12-18T20:19:21.738Z,101886.06
2022-12-18T20:21:49.091Z,101896.84
2022-12-18T20:24:16.391Z,101887.97
2022-12-18T20:26:43.627Z,101890.56
2022-12-18T20:29:10.922Z,101896.84
2022-12-18T20:31:38.162Z,101905.81
2022-12-18T20:34:06.276Z,101902.72
2022-12-18T20:36:36.293Z,101899.41
2022-12-18T20:39:07.681Z,101895.13
2022-12-18T20:41:38.952Z,101897.00
2022-12-18T20:44:22.597Z,101895.38
2022-12-18T20:47:00.244Z,101896.53
2022-12-18T20:49:32.591Z,101893.66
2022-12-18T20:52:02.233Z,101890.13
2022-12-18T20:54:29.744Z,101899.66
2022-12-18T20:56:57.505Z,101897.16
2022-12-18T20:59:25.943Z,101891.91
2022-12-18T21:01:54.838Z,101899.09
2022-12-18T21:04:23.516Z,101896.16
2022-12-18T21:07:01.932Z,101903.91
2022-12-18T21:09:37.573Z,101901.66
2022-12-18T21:12:40.482Z,101906.28
2022-12-18T21:15:17.135Z,101912.78
2022-12-18T21:17:45.416Z,101922.03
2022-12-18T21:20:17.419Z,101922.78
2022-12-18T21:22:46.755Z,101916.28
2022-12-18T21:25:14.504Z,101919.94
2022-12-18T21:27:41.634Z,101919.44
2022-12-18T21:30:09.684Z,101917.78
2022-12-18T21:32:37.006Z,101921.84
2022-12-18T21:35:04.776Z,101920.19
2022-12-18T21:37:32.063Z,101918.03
2022-12-18T21:39:59.266Z,101919.72
2022-12-18T21:42:45.392Z,101908.53
2022-12-18T21:45:12.403Z,101921.03
2022-12-18T21:47:39.755Z,101916.47
2022-12-18T21:50:07.526Z,101907.09
2022-12-18T21:52:34.714Z,101907.59
2022-12-18T21:55:09.053Z,101903.34
2022-12-18T21:57:39.076Z,101902.75
2022-12-18T22:00:10.433Z,101905.53
2022-12-18T22:02:40.648Z,101900.34
2022-12-18T22:05:08.955Z,101903.88
2022-12-18T22:07:36.110Z,101911.78
2022-12-18T22:10:03.583Z,101913.97
2022-12-18T22:12:43.096Z,101914.88
2022-12-18T22:15:20.018Z,101915.44
2022-12-18T22:17:50.887Z,101914.22
2022-12-18T22:20:19.945Z,101918.88
2022-12-18T22:22:50.355Z,101910.03
2022-12-18T22:25:18.438Z,101919.28
2022-12-18T22:28:08.537Z,101906.66
2022-12-18T22:30:36.096Z,101901.44
2022-12-18T22:33:03.912Z,101916.63
2022-12-18T22:35:31.246Z,101903.53
2022-12-18T22:38:01.605Z,101905.94
2022-12-18T22:40:29.354Z,101907.00
2022-12-18T22:42:57.055Z,101907.78
2022-12-18T22:45:26.623Z,101895.00
2022-12-18T22:47:54.127Z,101904.59
2022-12-18T22:50:21.343Z,101902.34
2022-12-18T22:52:48.558Z,101906.63
2022-12-18T22:55:15.914Z,101912.53
2022-12-18T22:57:48.523Z,101910.69
2022-12-18T23:00:18.664Z,101907.78
2022-12-18T23:02:59.356Z,101905.00
2022-12-18T23:05:29.953Z,101895.66
2022-12-18T23:07:57.907Z,101908.91
2022-12-18T23:10:25.276Z,101909.84
2022-12-18T23:12:52.479Z,101915.09
2022-12-18T23:15:22.848Z,101912.53
2022-12-18T23:17:58.652Z,101916.09
2022-12-18T23:20:28.181Z,101904.59
2022-12-18T23:22:55.753Z,101900.56
2022-12-18T23:25:23.278Z,101905.16
2022-12-18T23:27:50.614Z,101892.72
2022-12-18T23:30:18.151Z,101901.06
2022-12-18T23:32:45.363Z,101900.91
2022-12-18T23:35:14.065Z,101891.97
2022-12-18T23:38:00.517Z,101895.38
2022-12-18T23:40:29.771Z,101897.03
2022-12-18T23:42:57.129Z,101892.28
2022-12-18T23:45:24.261Z,101899.28
2022-12-18T23:47:51.512Z,101889.53
2022-12-18T23:50:18.957Z,101887.03
2022-12-18T23:52:49.285Z,101883.94
2022-12-18T23:55:16.602Z,101880.75
2022-12-18T23:57:43.780Z,101883.25
